Time;durP1;ratioP1;P1;durP2;ratioP2;P2;SDS_P1;SDS_P2;PMS_P1;PMS_P2;Temp;Humidity;BMP_temperature;BMP_pressure;BME280_temperature;BME280_humidity;BME280_pressure;Samples;Min_cycle;Max_cycle;Signal;HPM_P1;HPM_P2
2023/10/14 00:01:13;;;;;;;2.22;0.57;;;;;;;6.27;100.00;100867.31;4999537;28;20068;-72
2023/10/14 00:03:42;;;;;;;1.55;0.75;;;;;;;6.14;100.00;100873.84;4999453;28;20481;-72
2023/10/14 00:06:13;;;;;;;2.45;0.73;;;;;;;6.15;100.00;100883.53;4987369;28;20373;-72
2023/10/14 00:09:01;;;;;;;2.97;0.70;;;;;;;6.19;100.00;100877.91;5003127;28;20052;-73
2023/10/14 00:11:43;;;;;;;1.38;0.52;;;;;;;6.08;100.00;100871.72;4989458;28;20033;-72
2023/10/14 00:14:15;;;;;;;3.90;0.77;;;;;;;6.00;100.00;100886.78;4991896;28;20033;-72
2023/10/14 00:16:54;;;;;;;2.38;1.00;;;;;;;5.73;100.00;100891.84;5003468;28;20029;-73
2023/10/14 00:19:21;;;;;;;3.42;0.85;;;;;;;5.45;100.00;100898.00;5002954;28;20037;-72
2023/10/14 00:21:48;;;;;;;2.75;0.70;;;;;;;5.63;100.00;100901.66;5003057;28;20113;-72
2023/10/14 00:24:26;;;;;;;2.95;0.80;;;;;;;5.73;100.00;100899.84;5019151;28;20108;-73
2023/10/14 00:26:57;;;;;;;3.33;0.90;;;;;;;5.66;100.00;100900.53;5004483;28;20489;-72
2023/10/14 00:29:29;;;;;;;3.42;0.80;;;;;;;5.52;100.00;100912.47;5002441;28;20397;-72
2023/10/14 00:31:54;;;;;;;2.78;1.00;;;;;;;5.47;100.00;100920.03;5019717;28;20025;-72
2023/10/14 00:34:25;;;;;;;2.38;0.80;;;;;;;5.31;100.00;100909.09;4986573;28;20510;-73
2023/10/14 00:36:53;;;;;;;4.22;1.00;;;;;;;5.28;100.00;100919.03;5018751;28;20040;-72
2023/10/14 00:39:27;;;;;;;0.80;0.57;;;;;;;5.34;100.00;100924.81;5019063;28;20037;-72
2023/10/14 00:41:54;;;;;;;4.18;0.98;;;;;;;5.45;100.00;100924.66;5003612;28;20034;-72
2023/10/14 00:44:24;;;;;;;0.80;0.55;;;;;;;5.38;100.00;100931.56;5002489;28;20040;-73
2023/10/14 00:46:50;;;;;;;3.55;0.98;;;;;;;5.40;100.00;100933.09;5002900;28;20464;-74
2023/10/14 00:49:16;;;;;;;3.40;0.98;;;;;;;5.35;100.00;100937.16;5002018;28;20177;-71
2023/10/14 00:52:07;;;;;;;6.15;1.30;;;;;;;5.23;100.00;100939.09;5018707;28;20048;-72
2023/10/14 00:54:58;;;;;;;2.53;0.75;;;;;;;5.09;100.00;100932.31;5019416;28;20041;-72
2023/10/14 00:57:23;;;;;;;4.22;0.88;;;;;;;4.98;100.00;100943.94;5018438;28;20084;-73
2023/10/14 00:59:55;;;;;;;3.28;1.08;;;;;;;4.85;100.00;100949.50;4986247;28;20033;-74
2023/10/14 01:02:32;;;;;;;2.95;0.80;;;;;;;4.66;100.00;100956.53;5002637;28;20067;-74
2023/10/14 01:05:17;;;;;;;4.57;0.95;;;;;;;4.46;100.00;100959.09;5003763;28;20041;-74
2023/10/14 01:07:44;;;;;;;5.25;1.15;;;;;;;4.50;100.00;100965.00;5004598;28;20124;-74
2023/10/14 01:10:12;;;;;;;5.43;1.40;;;;;;;4.47;100.00;100966.13;5002437;28;20033;-74
2023/10/14 01:12:45;;;;;;;1.30;0.93;;;;;;;4.50;100.00;100976.53;5001995;28;20025;-74
2023/10/14 01:15:17;;;;;;;4.60;1.05;;;;;;;4.59;100.00;100974.88;5001837;28;20033;-73
2023/10/14 01:17:42;;;;;;;5.30;0.98;;;;;;;4.55;100.00;100982.31;5002417;28;20084;-73
2023/10/14 01:22:44;;;;;;;5.63;0.90;;;;;;;4.47;100.00;100986.56;5018884;28;20112;-73
2023/10/14 01:25:14;;;;;;;6.97;1.10;;;;;;;4.39;100.00;100996.06;5001925;28;20033;-75
2023/10/14 01:27:43;;;;;;;2.80;0.75;;;;;;;4.53;100.00;100994.91;4986679;28;20041;-73
2023/10/14 01:30:25;;;;;;;5.50;0.88;;;;;;;4.69;100.00;100994.44;5018172;28;20033;-73
2023/10/14 01:32:57;;;;;;;4.50;0.90;;;;;;;4.73;100.00;101003.81;5001953;28;20170;-73
2023/10/14 01:35:32;;;;;;;6.30;0.95;;;;;;;4.70;100.00;100997.94;5018271;28;20044;-73
2023/10/14 01:37:59;;;;;;;4.68;0.98;;;;;;;4.74;100.00;101005.53;4986854;28;20040;-73
2023/10/14 01:40:29;;;;;;;9.45;1.35;;;;;;;4.62;100.00;101006.56;5034440;28;20091;-74
2023/10/14 01:42:57;;;;;;;1.92;0.93;;;;;;;4.57;100.00;101003.47;5001432;28;20033;-73
2023/10/14 01:45:32;;;;;;;3.53;1.10;;;;;;;4.72;100.00;101002.16;5001433;28;20033;-73
2023/10/14 01:50:45;;;;;;;4.50;1.75;;;;;;;4.78;100.00;101012.28;5003166;28;20045;-73
2023/10/14 01:53:23;;;;;;;5.72;1.35;;;;;;;4.82;100.00;101015.53;5002056;28;20041;-73
2023/10/14 01:55:52;;;;;;;5.10;1.33;;;;;;;4.76;100.00;101019.56;4985972;28;20045;-74
2023/10/14 01:58:32;;;;;;;6.95;1.27;;;;;;;5.03;100.00;101021.66;5001667;28;20029;-73
2023/10/14 02:03:51;;;;;;;2.75;1.20;;;;;;;5.19;100.00;101023.84;5018883;28;20542;-73
2023/10/14 02:06:30;;;;;;;4.72;0.90;;;;;;;5.12;100.00;101025.34;4985757;28;20188;-75
2023/10/14 02:09:04;;;;;;;4.90;1.02;;;;;;;4.91;100.00;101032.53;5002530;28;20132;-73
2023/10/14 02:11:33;;;;;;;4.38;0.90;;;;;;;4.82;100.00;101032.34;5033724;28;20033;-73
2023/10/14 02:14:02;;;;;;;5.28;0.98;;;;;;;4.66;100.00;101041.78;5017444;28;20393;-75
2023/10/14 02:16:30;;;;;;;3.90;1.30;;;;;;;4.61;100.00;101051.00;5000888;28;20114;-73
2023/10/14 02:21:43;;;;;;;5.07;1.20;;;;;;;4.32;100.00;101063.28;5020207;28;20029;-73
2023/10/14 02:24:10;;;;;;;2.42;0.65;;;;;;;4.31;100.00;101061.56;5016772;28;20382;-74
2023/10/14 02:26:48;;;;;;;3.50;0.95;;;;;;;4.23;100.00;101059.53;5018029;28;20037;-74
2023/10/14 02:29:15;;;;;;;3.22;1.00;;;;;;;4.21;100.00;101068.63;5016925;28;20474;-73
2023/10/14 02:31:44;;;;;;;2.33;0.70;;;;;;;4.13;100.00;101070.13;5000598;28;20120;-73
2023/10/14 02:34:10;;;;;;;4.13;0.95;;;;;;;4.01;100.00;101075.59;5000548;28;20037;-74
2023/10/14 02:36:49;;;;;;;2.03;0.80;;;;;;;3.87;100.00;101069.59;5016482;28;20032;-74
2023/10/14 02:39:19;;;;;;;2.65;0.80;;;;;;;3.84;100.00;101079.66;5017740;28;20073;-73
2023/10/14 02:42:00;;;;;;;2.60;0.75;;;;;;;3.78;100.00;101085.44;5017218;28;20040;-73
2023/10/14 02:44:48;;;;;;;2.88;0.82;;;;;;;3.73;100.00;101084.03;5001138;28;20068;-73
2023/10/14 02:47:19;;;;;;;5.00;0.95;;;;;;;3.68;100.00;101093.34;5017881;28;20032;-75
2023/10/14 02:49:53;;;;;;;5.18;1.50;;;;;;;3.65;100.00;101096.22;5017092;28;20033;-73
2023/10/14 02:52:28;;;;;;;4.80;1.00;;;;;;;3.52;100.00;101101.69;4984714;28;20124;-74
2023/10/14 02:54:54;;;;;;;3.88;0.80;;;;;;;3.38;100.00;101102.75;5001382;28;20040;-73
2023/10/14 02:57:26;;;;;;;1.38;0.70;;;;;;;3.28;100.00;101115.06;4999930;28;20137;-73
2023/10/14 02:59:57;;;;;;;2.42;0.75;;;;;;;3.20;100.00;101121.00;5000941;28;20037;-73
2023/10/14 03:02:27;;;;;;;4.18;0.90;;;;;;;3.11;100.00;101121.72;5000550;28;20047;-73
2023/10/14 03:12:49;;;;;;;4.57;0.80;;;;;;;3.25;100.00;101126.78;5016706;28;20068;-75
2023/10/14 03:15:20;;;;;;;3.40;1.00;;;;;;;3.28;100.00;101125.69;5016267;28;20112;-74
2023/10/14 03:17:55;;;;;;;5.05;1.02;;;;;;;3.26;100.00;101125.00;5000068;28;20384;-73
2023/10/14 03:22:57;;;;;;;3.00;1.17;;;;;;;3.25;100.00;101128.59;5017096;28;20362;-74
2023/10/14 03:25:25;;;;;;;2.17;0.98;;;;;;;3.21;100.00;101129.81;4999752;28;20041;-74
2023/10/14 03:28:06;;;;;;;3.78;0.95;;;;;;;3.16;100.00;101143.47;4983884;28;20135;-74
2023/10/14 03:30:37;;;;;;;3.70;1.00;;;;;;;3.14;100.00;101140.06;5016251;28;20033;-73
2023/10/14 03:33:09;;;;;;;3.20;0.73;;;;;;;3.07;100.00;101145.03;4984077;28;20048;-74
2023/10/14 03:35:36;;;;;;;5.75;0.90;;;;;;;2.97;100.00;101151.16;5016348;28;20474;-74
2023/10/14 03:38:11;;;;;;;2.08;1.00;;;;;;;2.94;100.00;101156.69;4999681;28;20099;-74
2023/10/14 03:43:15;;;;;;;6.00;0.88;;;;;;;2.71;100.00;101153.97;5017684;28;20037;-73
2023/10/14 03:45:56;;;;;;;3.97;1.05;;;;;;;2.67;100.00;101163.13;4983464;28;20037;-75
2023/10/14 03:48:36;;;;;;;3.42;0.90;;;;;;;2.57;100.00;101160.31;4999608;28;20033;-73
2023/10/14 03:51:05;;;;;;;5.35;1.15;;;;;;;2.52;100.00;101157.16;5001166;28;20449;-73
2023/10/14 03:53:34;;;;;;;3.15;1.05;;;;;;;2.48;100.00;101160.16;4999417;28;20095;-73
2023/10/14 03:56:03;;;;;;;2.88;0.93;;;;;;;2.57;100.00;101155.00;4999148;28;20044;-73
2023/10/14 03:58:41;;;;;;;6.43;1.40;;;;;;;2.60;100.00;101161.91;4999647;28;20116;-74
2023/10/14 04:01:07;;;;;;;1.95;0.98;;;;;;;2.46;100.00;101165.59;5015213;28;20052;-73
2023/10/14 04:03:43;;;;;;;4.10;1.13;;;;;;;2.24;100.00;101173.41;4983120;28;20486;-73
2023/10/14 04:06:15;;;;;;;2.90;1.27;;;;;;;2.01;100.00;101170.59;5000869;28;20086;-73
2023/10/14 04:08:50;;;;;;;;;;;;;;;2.00;100.00;101174.22;5016672;28;20083;-74
2023/10/14 04:11:25;;;;;;;1.50;0.80;;;;;;;1.86;100.00;101177.03;5016806;28;19966;-73
2023/10/14 04:14:08;;;;;;;1.08;0.63;;;;;;;1.73;100.00;101185.84;4984414;28;20033;-73
2023/10/14 04:16:48;;;;;;;4.53;1.48;;;;;;;1.50;100.00;101181.31;5001038;28;20029;-73
2023/10/14 04:19:44;;;;;;;4.07;1.08;;;;;;;1.47;100.00;101189.47;5001279;28;20044;-73
2023/10/14 04:27:45;;;;;;;1.38;1.00;;;;;;;1.87;100.00;101186.66;5017006;28;20034;-73
2023/10/14 04:30:25;;;;;;;1.25;0.88;;;;;;;2.00;100.00;101190.13;4984296;28;20028;-73
2023/10/14 04:35:26;;;;;;;3.38;1.00;;;;;;;2.05;100.00;101189.81;5016410;28;20044;-73
2023/10/14 04:37:52;;;;;;;3.03;1.23;;;;;;;2.07;100.00;101194.06;4998897;28;20033;-73
2023/10/14 04:43:19;;;;;;;4.43;1.20;;;;;;;1.94;100.00;101203.84;5016418;28;20046;-74
2023/10/14 04:45:52;;;;;;;4.20;0.85;;;;;;;1.77;100.00;101212.97;5002455;28;20088;-73
2023/10/14 04:48:51;;;;;;;3.80;1.00;;;;;;;1.60;100.00;101210.69;4998958;28;20065;-73
2023/10/14 04:51:19;;;;;;;2.08;0.75;;;;;;;1.40;100.00;101220.00;5002246;28;20033;-73
2023/10/14 04:53:52;;;;;;;3.10;0.88;;;;;;;1.21;100.00;101229.19;4986863;28;20547;-73
2023/10/14 04:56:22;;;;;;;3.38;1.13;;;;;;;1.10;100.00;101219.31;5002246;28;20049;-74
2023/10/14 04:58:53;;;;;;;1.92;0.73;;;;;;;1.09;100.00;101233.53;5019007;28;20475;-73
2023/10/14 05:01:24;;;;;;;3.60;0.80;;;;;;;1.14;100.00;101235.88;4986712;28;20060;-73
2023/10/14 05:03:55;;;;;;;1.88;0.95;;;;;;;1.30;100.00;101228.59;4986308;28;20064;-73
2023/10/14 05:06:21;;;;;;;3.70;1.48;;;;;;;1.47;100.00;101227.41;5019082;28;20025;-73
2023/10/14 05:08:56;;;;;;;7.05;1.92;;;;;;;1.68;100.00;101242.78;4970173;28;20045;-73
2023/10/14 05:11:25;;;;;;;7.53;1.77;;;;;;;1.74;100.00;101243.19;5003284;28;20029;-74
2023/10/14 05:14:14;;;;;;;3.92;1.63;;;;;;;1.75;100.00;101239.63;5002351;28;20036;-74
2023/10/14 05:16:55;;;;;;;6.40;1.42;;;;;;;1.94;100.00;101240.97;5017989;28;20099;-73
2023/10/14 05:19:46;;;;;;;5.47;1.50;;;;;;;1.76;100.00;101249.25;5004450;28;20067;-73
2023/10/14 05:22:23;;;;;;;3.90;1.50;;;;;;;1.63;100.00;101253.72;4988408;28;20542;-73
2023/10/14 05:24:56;;;;;;;2.75;1.35;;;;;;;1.62;100.00;101259.13;5018188;28;20495;-73
2023/10/14 05:27:22;;;;;;;5.13;1.25;;;;;;;1.61;100.00;101260.91;5002172;28;20374;-73
2023/10/14 05:29:53;;;;;;;2.10;0.95;;;;;;;1.64;100.00;101251.91;5018064;28;20037;-74
2023/10/14 05:32:24;;;;;;;8.00;1.13;;;;;;;1.51;100.00;101268.66;5002717;28;20044;-73
2023/10/14 05:34:50;;;;;;;1.95;1.00;;;;;;;1.43;100.00;101271.00;5034198;28;20440;-73
2023/10/14 05:37:18;;;;;;;3.25;1.20;;;;;;;1.39;100.00;101263.34;4985591;28;20095;-73
2023/10/14 05:39:45;;;;;;;3.38;0.95;;;;;;;1.19;100.00;101277.91;5001553;28;20035;-73
2023/10/14 05:42:15;;;;;;;6.75;0.90;;;;;;;0.99;100.00;101279.25;5017353;28;20436;-73
2023/10/14 05:44:46;;;;;;;3.67;0.70;;;;;;;0.87;100.00;101284.41;5017787;28;20080;-73
2023/10/14 05:47:13;;;;;;;5.20;0.88;;;;;;;0.90;100.00;101282.50;5002611;28;20033;-73
2023/10/14 05:49:38;;;;;;;1.08;0.60;;;;;;;0.87;100.00;101273.84;5001545;28;20045;-74
2023/10/14 05:52:08;;;;;;;6.13;0.80;;;;;;;0.76;100.00;101286.91;5001169;28;20503;-73
2023/10/14 05:54:34;;;;;;;3.78;0.63;;;;;;;0.76;100.00;101280.75;5001650;28;20088;-74
2023/10/14 05:57:00;;;;;;;4.13;0.80;;;;;;;0.68;100.00;101286.53;5001129;28;20037;-73
2023/10/14 05:59:26;;;;;;;1.45;0.73;;;;;;;0.60;100.00;101296.78;5001114;28;20104;-75
2023/10/14 06:01:52;;;;;;;5.70;0.90;;;;;;;0.52;100.00;101288.47;5000489;28;20044;-75
2023/10/14 06:04:17;;;;;;;1.90;0.65;;;;;;;0.37;100.00;101299.09;4984839;28;20033;-74
2023/10/14 06:06:46;;;;;;;1.52;0.70;;;;;;;0.37;100.00;101312.34;5001056;28;20021;-73
2023/10/14 06:09:17;;;;;;;4.40;0.70;;;;;;;0.33;100.00;101310.81;5017486;28;20052;-73
2023/10/14 06:11:43;;;;;;;1.35;0.70;;;;;;;0.29;100.00;101325.19;5000994;28;20026;-73
2023/10/14 06:14:11;;;;;;;2.72;0.90;;;;;;;0.48;100.00;101324.88;5000598;28;20049;-73
2023/10/14 06:16:36;;;;;;;2.92;0.80;;;;;;;0.49;100.00;101336.31;5000981;28;20404;-73
2023/10/14 06:19:05;;;;;;;1.35;0.90;;;;;;;0.41;100.00;101337.63;4984679;28;20037;-73
2023/10/14 06:21:34;;;;;;;2.55;0.88;;;;;;;0.30;100.00;101340.09;4984647;28;20480;-74
2023/10/14 06:24:00;;;;;;;4.25;0.90;;;;;;;0.35;100.00;101342.47;5016879;28;20029;-73
2023/10/14 06:26:27;;;;;;;1.98;1.10;;;;;;;0.39;100.00;101347.44;5000628;28;20489;-73
2023/10/14 06:28:56;;;;;;;6.43;1.73;;;;;;;0.46;100.00;101350.59;5000659;28;20034;-73
2023/10/14 06:31:24;;;;;;;7.55;1.77;;;;;;;0.60;100.00;101360.28;5000811;28;20543;-73
2023/10/14 06:33:54;;;;;;;6.68;1.38;;;;;;;0.96;100.00;101358.91;5000673;28;20037;-73
2023/10/14 06:36:25;;;;;;;4.32;1.30;;;;;;;1.25;100.00;101357.00;4985060;28;20033;-73
2023/10/14 06:38:51;;;;;;;3.65;1.10;;;;;;;1.13;100.00;101371.03;5001534;28;20110;-73
2023/10/14 06:41:17;;;;;;;4.53;2.00;;;;;;;1.02;100.00;101383.19;5034281;28;20446;-73
2023/10/14 06:43:47;;;;;;;6.22;1.52;;;;;;;0.92;100.00;101383.88;5000372;28;20037;-73
2023/10/14 06:46:16;;;;;;;2.33;0.95;;;;;;;0.78;100.00;101390.03;5000033;28;20563;-74
2023/10/14 06:48:42;;;;;;;4.43;0.80;;;;;;;0.71;100.00;101394.88;4984234;28;20037;-73
2023/10/14 06:51:11;;;;;;;6.82;0.90;;;;;;;0.85;100.00;101402.81;5000274;28;20083;-74
2023/10/14 06:53:39;;;;;;;6.13;1.08;;;;;;;1.30;100.00;101397.28;4984014;28;20041;-73
2023/10/14 06:56:07;;;;;;;5.05;1.27;;;;;;;1.37;100.00;101406.53;5000114;28;20033;-74
2023/10/14 06:58:33;;;;;;;0.60;0.60;;;;;;;1.76;100.00;101410.97;5000186;28;20083;-74
2023/10/14 07:01:03;;;;;;;6.60;1.25;;;;;;;1.95;100.00;101409.75;4982691;28;20049;-73
2023/10/14 07:03:28;;;;;;;3.95;1.25;;;;;;;1.88;100.00;101417.28;5016145;28;20033;-73
2023/10/14 07:05:57;;;;;;;4.78;1.30;;;;;;;1.96;100.00;101416.78;4983867;28;20033;-73
2023/10/14 07:08:27;;;;;;;1.70;1.05;;;;;;;1.96;100.00;101417.59;4999215;28;20037;-74
2023/10/14 07:10:54;;;;;;;1.55;0.98;;;;;;;1.98;100.00;101420.13;4983261;28;20033;-73
2023/10/14 07:13:21;;;;;;;6.20;1.30;;;;;;;2.04;100.00;101427.69;5015376;28;20064;-74
2023/10/14 07:15:48;;;;;;;6.65;1.17;;;;;;;2.07;100.00;101435.44;4983512;28;20029;-74
2023/10/14 07:18:14;;;;;;;5.25;1.38;;;;;;;2.20;100.00;101441.63;5015902;28;20060;-74
2023/10/14 07:20:45;;;;;;;2.95;1.42;;;;;;;2.27;100.00;101451.78;5032367;28;20036;-74
2023/10/14 07:23:11;;;;;;;2.63;1.05;;;;;;;2.31;100.00;101446.19;5032111;28;20048;-74
2023/10/14 07:25:40;;;;;;;4.82;1.30;;;;;;;2.29;100.00;101450.75;4999545;28;20041;-75
2023/10/14 07:28:07;;;;;;;7.60;1.50;;;;;;;2.22;100.00;101457.41;5000178;28;20488;-75
2023/10/14 07:30:34;;;;;;;4.28;1.30;;;;;;;2.32;100.00;101461.13;5032122;28;20037;-74
2023/10/14 07:33:01;;;;;;;2.45;0.90;;;;;;;2.33;100.00;101467.28;5015147;28;20032;-75
2023/10/14 07:35:27;;;;;;;9.40;1.90;;;;;;;2.31;100.00;101472.72;4998474;28;20121;-74
2023/10/14 07:37:53;;;;;;;5.25;1.30;;;;;;;2.31;100.00;101491.28;4997508;28;20136;-74
2023/10/14 07:40:23;;;;;;;7.13;1.42;;;;;;;2.29;100.00;101484.38;4998822;28;20037;-74
2023/10/14 07:43:08;;;;;;;4.03;0.90;;;;;;;2.27;100.00;101486.28;4999479;28;20037;-74
2023/10/14 07:45:37;;;;;;;5.57;1.10;;;;;;;2.40;100.00;101488.00;4997645;28;20065;-75
2023/10/14 07:48:13;;;;;;;5.13;1.10;;;;;;;2.59;100.00;101494.69;4998622;28;20041;-74
2023/10/14 07:50:42;;;;;;;4.63;1.40;;;;;;;2.76;100.00;101496.19;4999914;28;20064;-75
2023/10/14 07:53:12;;;;;;;2.25;1.45;;;;;;;2.85;100.00;101501.69;4998577;28;20429;-73
2023/10/14 07:55:48;;;;;;;1.40;0.90;;;;;;;2.84;100.00;101509.78;4998759;28;20036;-75
2023/10/14 07:58:17;;;;;;;5.38;1.25;;;;;;;2.82;100.00;101515.19;5031461;28;20117;-74
2023/10/14 08:00:50;;;;;;;4.10;0.93;;;;;;;2.89;100.00;101512.97;5000105;28;20432;-73
2023/10/14 08:03:29;;;;;;;3.00;1.20;;;;;;;2.98;100.00;101517.63;4999823;28;20486;-73
2023/10/14 08:06:05;;;;;;;1.95;0.90;;;;;;;3.21;100.00;101523.13;4982975;28;20022;-73
2023/10/14 08:08:31;;;;;;;1.95;1.05;;;;;;;3.33;100.00;101530.22;4999107;28;20041;-74
2023/10/14 08:11:00;;;;;;;3.50;1.20;;;;;;;3.40;100.00;101533.28;5015561;28;20030;-74
2023/10/14 08:13:27;;;;;;;3.58;1.48;;;;;;;3.51;100.00;101534.22;5015479;28;20029;-74
2023/10/14 08:15:54;;;;;;;9.27;3.03;;;;;;;3.74;100.00;101543.19;5015451;28;20121;-74
2023/10/14 08:18:24;;;;;;;6.47;2.83;;;;;;;4.00;100.00;101547.56;4998836;28;20033;-73
2023/10/14 08:20:55;;;;;;;7.00;2.65;;;;;;;4.29;100.00;101548.88;4967797;28;20034;-74
2023/10/14 08:23:24;;;;;;;7.50;3.05;;;;;;;5.23;100.00;101555.81;5015193;28;20030;-73
2023/10/14 08:25:54;;;;;;;6.43;3.00;;;;;;;6.31;100.00;101558.63;5001055;28;20025;-74
2023/10/14 08:28:21;;;;;;;12.02;3.83;;;;;;;7.35;100.00;101559.50;5004604;28;20128;-74
2023/10/14 08:30:49;;;;;;;6.07;2.80;;;;;;;8.05;100.00;101560.38;5003410;28;20389;-74
2023/10/14 08:33:28;;;;;;;6.70;2.42;;;;;;;8.61;100.00;101555.31;5004203;28;20393;-74
2023/10/14 08:35:55;;;;;;;11.95;4.55;;;;;;;8.98;100.00;101563.41;5019371;28;20037;-74
2023/10/14 08:38:27;;;;;;;11.98;4.75;;;;;;;8.69;100.00;101561.66;4986741;28;20037;-75
2023/10/14 08:40:53;;;;;;;9.25;3.00;;;;;;;7.97;100.00;101567.41;5003575;28;20471;-74
2023/10/14 08:43:21;;;;;;;5.65;2.47;;;;;;;8.96;100.00;101557.34;5018853;28;20455;-74
2023/10/14 08:45:51;;;;;;;3.13;1.20;;;;;;;9.78;100.00;101555.69;5002226;28;20043;-75
2023/10/14 08:48:18;;;;;;;2.88;1.00;;;;;;;10.32;100.00;101559.31;4987025;28;20041;-75
2023/10/14 08:50:45;;;;;;;2.55;1.15;;;;;;;10.74;100.00;101561.28;5017851;28;20103;-72
2023/10/14 08:53:14;;;;;;;4.32;1.40;;;;;;;11.21;100.00;101564.44;5035443;28;20136;-72
2023/10/14 08:55:49;;;;;;;8.88;1.17;;;;;;;11.48;100.00;101565.25;5018216;28;20025;-73
2023/10/14 08:58:17;;;;;;;1.77;0.90;;;;;;;11.50;100.00;101579.41;5002825;28;20033;-73
2023/10/14 09:00:43;;;;;;;4.72;1.20;;;;;;;11.75;100.00;101587.56;5002530;28;20541;-73
2023/10/14 09:03:10;;;;;;;3.80;1.15;;;;;;;11.98;100.00;101593.22;5002386;28;20037;-73
2023/10/14 09:05:44;;;;;;;3.97;1.00;;;;;;;12.00;100.00;101589.38;5002227;28;20041;-73
2023/10/14 09:08:19;;;;;;;1.98;0.98;;;;;;;11.73;100.00;101597.69;5003373;28;20458;-73
2023/10/14 09:10:45;;;;;;;3.88;1.33;;;;;;;11.74;100.00;101602.91;5002647;28;20092;-73
2023/10/14 09:13:13;;;;;;;4.45;1.08;;;;;;;11.87;100.00;101592.53;4986585;28;20409;-73
2023/10/14 09:15:41;;;;;;;3.45;1.08;;;;;;;12.10;100.00;101603.53;5018359;28;20037;-75
2023/10/14 09:18:11;;;;;;;2.60;1.08;;;;;;;12.15;100.00;101611.16;5034827;28;20125;-72
2023/10/14 09:20:38;;;;;;;3.55;0.90;;;;;;;12.44;100.00;101609.84;5018360;28;20033;-73
2023/10/14 09:26:01;;;;;;;1.83;0.90;;;;;;;12.83;100.00;101615.38;5018509;28;20055;-73
2023/10/14 09:28:32;;;;;;;2.22;1.10;;;;;;;13.07;100.00;101622.66;5018883;28;20092;-73
2023/10/14 09:30:59;;;;;;;2.45;1.33;;;;;;;12.96;100.00;101621.13;5002388;28;20116;-73
2023/10/14 09:33:35;;;;;;;4.43;1.08;;;;;;;12.98;100.00;101627.19;5001820;28;20502;-73
2023/10/14 09:36:06;;;;;;;6.45;1.00;;;;;;;13.09;100.00;101626.00;5017310;28;20429;-72
2023/10/14 09:38:32;;;;;;;2.30;1.10;;;;;;;13.19;100.00;101626.66;5000695;28;20033;-74
2023/10/14 09:41:04;;;;;;;5.07;1.10;;;;;;;13.25;100.00;101629.69;5001380;28;20116;-72
2023/10/14 09:43:32;;;;;;;6.10;1.67;;;;;;;13.44;100.00;101634.72;5001813;28;20064;-73
2023/10/14 09:45:59;;;;;;;2.33;0.98;;;;;;;13.56;100.00;101641.47;5001511;28;20025;-73
2023/10/14 09:48:29;;;;;;;2.83;1.10;;;;;;;13.89;100.00;101645.88;5001203;28;20121;-73
2023/10/14 09:50:56;;;;;;;3.25;0.90;;;;;;;13.97;100.00;101646.72;5001413;28;20044;-73
2023/10/14 09:53:26;;;;;;;2.78;1.00;;;;;;;14.05;100.00;101652.06;5001205;28;20511;-73
2023/10/14 09:55:56;;;;;;;6.03;1.20;;;;;;;14.63;100.00;101655.31;5001116;28;20473;-73
2023/10/14 09:58:23;;;;;;;2.90;1.08;;;;;;;15.50;100.00;101660.22;5001328;28;20033;-73
2023/10/14 10:00:49;;;;;;;4.45;1.15;;;;;;;15.71;100.00;101658.69;5002197;28;20377;-73
2023/10/14 10:03:19;;;;;;;4.20;1.30;;;;;;;15.32;100.00;101655.19;4985085;28;20473;-73
2023/10/14 10:06:06;;;;;;;4.93;1.10;;;;;;;15.28;100.00;101659.28;4985135;28;20545;-73
2023/10/14 10:08:35;;;;;;;4.70;1.20;;;;;;;13.46;100.00;101654.31;4986059;28;20045;-72
2023/10/14 10:11:01;;;;;;;3.30;0.85;;;;;;;12.19;100.00;101665.56;5001097;28;20104;-72
2023/10/14 10:13:29;;;;;;;6.93;1.48;;;;;;;11.80;100.00;101668.75;5001112;28;20489;-73
2023/10/14 10:16:03;;;;;;;4.95;1.00;;;;;;;12.80;100.00;101671.56;5017469;28;20065;-73
2023/10/14 10:18:56;;;;;;;4.65;1.75;;;;;;;14.82;100.00;101675.63;4985321;28;20461;-73
2023/10/14 10:21:32;;;;;;;2.78;1.20;;;;;;;14.81;100.00;101679.34;5007965;28;20135;-72
2023/10/14 10:24:09;;;;;;;3.80;1.13;;;;;;;15.33;98.48;101680.41;4968870;28;20037;-73
2023/10/14 10:26:57;;;;;;;4.47;1.17;;;;;;;13.82;100.00;101678.19;5033594;28;20026;-73
2023/10/14 10:29:23;;;;;;;4.40;1.20;;;;;;;13.30;86.20;101687.59;5001434;28;20481;-73
2023/10/14 10:32:08;;;;;;;4.38;0.98;;;;;;;12.59;79.83;101691.78;4984662;28;20477;-73
2023/10/14 10:35:06;;;;;;;1.85;1.08;;;;;;;13.49;83.49;101691.78;5002849;28;20087;-72
2023/10/14 10:37:47;;;;;;;4.90;1.30;;;;;;;12.74;87.76;101691.97;5000539;28;20542;-72
2023/10/14 10:40:16;;;;;;;3.03;1.02;;;;;;;13.78;90.21;101695.78;5034196;28;20022;-73
2023/10/14 10:42:55;;;;;;;3.70;1.02;;;;;;;13.32;85.65;101706.34;5000177;28;20470;-73
2023/10/14 10:45:25;;;;;;;3.38;0.75;;;;;;;12.94;94.45;101708.72;5001227;28;20037;-73
2023/10/14 10:47:56;;;;;;;4.35;1.15;;;;;;;13.26;95.74;101710.59;5000704;28;20076;-72
2023/10/14 10:50:26;;;;;;;5.35;1.30;;;;;;;15.05;78.29;101718.91;4984247;28;20493;-73
2023/10/14 10:53:13;;;;;;;3.95;1.80;;;;;;;15.35;71.41;101717.16;5000266;28;20037;-74
2023/10/14 10:55:46;;;;;;;7.15;1.10;;;;;;;13.61;80.42;101735.53;5033428;28;20516;-73
2023/10/14 10:58:12;;;;;;;;;;;;;;;12.07;71.15;101740.53;5001549;28;20033;-72
2023/10/14 11:00:42;;;;;;;2.15;0.80;;;;;;;11.41;74.65;101736.56;5000327;28;20286;-73
2023/10/14 11:03:13;;;;;;;3.47;1.20;;;;;;;12.89;84.21;101735.38;5000007;28;20452;-73
2023/10/14 11:05:41;;;;;;;2.90;1.73;;;;;;;13.64;81.20;101738.72;5016099;28;20099;-73
2023/10/14 11:08:08;;;;;;;4.30;1.27;;;;;;;14.03;77.49;101740.66;5016567;28;20184;-73
2023/10/14 11:10:38;;;;;;;3.53;1.00;;;;;;;14.79;83.86;101746.38;5000127;28;20088;-73
2023/10/14 11:13:13;;;;;;;2.50;0.90;;;;;;;15.14;83.90;101744.94;5000357;28;20048;-73
2023/10/14 11:15:40;;;;;;;0.68;0.68;;;;;;;14.72;66.48;101748.13;4984100;28;20056;-73
2023/10/14 11:18:10;;;;;;;4.05;0.80;;;;;;;14.07;78.26;101750.06;5016120;28;20116;-73
2023/10/14 11:20:40;;;;;;;2.15;1.10;;;;;;;13.19;71.24;101750.03;4999959;28;20040;-73
2023/10/14 11:23:10;;;;;;;6.07;1.60;;;;;;;13.25;84.44;101762.88;4999849;28;20052;-73
2023/10/14 11:25:40;;;;;;;4.97;1.13;;;;;;;13.68;84.54;101759.97;4983954;28;20387;-73
2023/10/14 11:28:11;;;;;;;3.65;0.90;;;;;;;13.88;77.70;101766.72;5016170;28;20077;-73
2023/10/14 11:30:41;;;;;;;3.08;1.00;;;;;;;13.76;64.33;101759.97;4982303;28;20148;-75
2023/10/14 11:33:10;;;;;;;4.05;1.20;;;;;;;14.14;76.26;101761.06;5015407;28;20045;-74
2023/10/14 11:35:37;;;;;;;3.90;1.05;;;;;;;14.75;75.31;101758.59;4999217;28;20029;-74
2023/10/14 11:38:07;;;;;;;3.33;1.40;;;;;;;14.87;59.72;101762.56;5000444;28;20099;-74
2023/10/14 11:40:36;;;;;;;3.85;1.17;;;;;;;14.40;63.68;101757.25;5016194;28;20037;-74
2023/10/14 11:43:04;;;;;;;4.30;1.38;;;;;;;13.67;70.80;101764.56;4982875;28;20037;-73
2023/10/14 11:45:35;;;;;;;4.47;1.00;;;;;;;13.87;79.90;101765.03;4999549;28;20041;-73
2023/10/14 11:48:04;;;;;;;6.30;1.27;;;;;;;14.12;73.28;101765.78;4983178;28;20418;-73
2023/10/14 11:50:30;;;;;;;2.25;0.85;;;;;;;14.24;59.63;101758.16;4998953;28;20033;-74
2023/10/14 11:52:59;;;;;;;6.80;1.63;;;;;;;13.19;61.29;101777.06;5015271;28;20040;-73
2023/10/14 11:55:26;;;;;;;2.33;0.90;;;;;;;12.64;75.19;101786.56;5015485;28;20021;-74
2023/10/14 11:57:55;;;;;;;2.00;1.05;;;;;;;12.23;78.00;101788.28;5015358;28;20109;-73
2023/10/14 12:00:21;;;;;;;4.25;1.20;;;;;;;12.00;84.08;101791.53;5000300;28;20404;-73
2023/10/14 12:02:48;;;;;;;2.25;1.00;;;;;;;11.97;78.83;101802.63;5003546;28;20033;-74
2023/10/14 12:05:17;;;;;;;5.93;1.73;;;;;;;11.88;78.87;101787.41;5003152;28;20030;-75
2023/10/14 12:07:51;;;;;;;2.22;0.80;;;;;;;11.11;79.79;101781.72;5003547;28;20477;-75
2023/10/14 12:10:17;;;;;;;3.55;0.98;;;;;;;10.86;84.90;101794.13;4987574;28;20042;-74
2023/10/14 12:12:51;;;;;;;2.67;1.02;;;;;;;10.99;85.81;101781.13;5002476;28;20392;-73
2023/10/14 12:15:23;;;;;;;3.20;1.20;;;;;;;11.14;85.75;101780.59;5003642;28;20036;-75
2023/10/14 12:17:48;;;;;;;7.28;1.27;;;;;;;11.37;83.93;101778.25;5019618;28;20065;-73
2023/10/14 12:20:14;;;;;;;4.20;1.05;;;;;;;11.67;83.08;101771.59;5003118;28;20124;-73